Time;durP1;ratioP1;P1;durP2;ratioP2;P2;SDS_P1;SDS_P2;PMS_P1;PMS_P2;Temp;Humidity;BMP_temperature;BMP_pressure;BME280_temperature;BME280_humidity;BME280_pressure;Samples;Min_cycle;Max_cycle;Signal;HPM_P1;HPM_P2
2021/12/22 00:02:11;;;;;;;37.80;18.02;;;;;;;-2.56;78.99;100041.07;1764266;81;21002;-41
2021/12/22 00:04:44;;;;;;;41.77;17.15;;;;;;;-2.60;78.87;100041.01;1764357;81;20986;-41
2021/12/22 00:07:07;;;;;;;43.15;18.07;;;;;;;-2.65;79.07;100046.56;1763604;81;20974;-40
2021/12/22 00:09:33;;;;;;;39.35;18.35;;;;;;;-2.68;78.97;100047.80;1764439;81;20990;-40
2021/12/22 00:11:59;;;;;;;38.92;17.15;;;;;;;-2.64;78.64;100048.27;1764431;81;21492;-40
2021/12/22 00:14:24;;;;;;;47.95;19.80;;;;;;;-2.67;78.58;100053.38;1764497;81;21014;-41
2021/12/22 00:16:50;;;;;;;46.73;19.73;;;;;;;-2.74;78.87;100053.33;1764128;81;21022;-40
2021/12/22 00:19:16;;;;;;;46.55;19.62;;;;;;;-2.76;79.00;100052.45;1764513;81;21508;-40
2021/12/22 00:21:42;;;;;;;44.20;19.75;;;;;;;-2.77;78.96;100049.84;1764393;81;21427;-40
2021/12/22 00:24:07;;;;;;;72.45;36.55;;;;;;;-2.75;78.93;100055.48;1764377;81;20986;-41
2021/12/22 00:26:33;;;;;;;46.88;21.97;;;;;;;-2.77;78.54;100051.14;1764445;81;20970;-41
2021/12/22 00:28:59;;;;;;;54.23;20.57;;;;;;;-2.90;78.53;100053.56;1764511;81;20991;-41
2021/12/22 00:31:25;;;;;;;37.00;17.50;;;;;;;-2.85;78.69;100051.49;1764378;81;21078;-41
2021/12/22 00:33:53;;;;;;;44.13;22.15;;;;;;;-2.86;78.40;100061.34;1764347;81;21125;-41
2021/12/22 00:36:21;;;;;;;;;;;;;;;-2.85;78.30;100052.34;1767011;81;20982;-42
2021/12/22 00:38:48;;;;;;;38.73;16.48;;;;;;;-2.98;78.21;100066.78;1738568;81;20129;-41
2021/12/22 00:41:15;;;;;;;41.15;17.42;;;;;;;-2.94;78.12;100068.98;1764452;81;21515;-39
2021/12/22 00:43:41;;;;;;;36.98;15.90;;;;;;;-3.05;78.03;100066.70;1738683;81;21042;-41
2021/12/22 00:46:07;;;;;;;43.80;17.05;;;;;;;-3.06;78.23;100075.25;1764334;81;21006;-41
2021/12/22 00:48:33;;;;;;;39.42;17.05;;;;;;;-3.10;77.98;100072.62;1760341;81;21006;-41
2021/12/22 00:51:00;;;;;;;42.55;16.40;;;;;;;-3.09;78.29;100076.09;1757384;81;20995;-41
2021/12/22 00:53:27;;;;;;;41.45;17.32;;;;;;;-3.11;78.32;100085.07;1757427;82;21531;-40
2021/12/22 00:55:53;;;;;;;32.80;15.15;;;;;;;-3.10;78.12;100074.34;1757566;82;21029;-40
2021/12/22 00:58:20;;;;;;;39.88;18.80;;;;;;;-3.13;77.96;100080.73;1757372;82;21038;-40
2021/12/22 01:00:48;;;;;;;42.70;17.93;;;;;;;-3.09;77.74;100078.23;1757661;81;21006;-39
2021/12/22 01:03:17;;;;;;;41.80;16.20;;;;;;;-3.09;77.53;100082.52;1757465;81;20982;-41
2021/12/22 01:05:43;;;;;;;40.40;17.57;;;;;;;-3.09;77.35;100082.52;1756375;81;20998;-40
2021/12/22 01:08:09;;;;;;;32.40;15.23;;;;;;;-3.19;77.36;100081.95;1757352;82;21030;-41
2021/12/22 01:10:35;;;;;;;36.05;15.93;;;;;;;-3.22;77.11;100077.64;1757498;81;21531;-40
2021/12/22 01:13:04;;;;;;;31.02;14.38;;;;;;;-3.24;77.34;100084.87;1757367;82;21830;-40
2021/12/22 01:15:31;;;;;;;36.05;16.40;;;;;;;-3.25;77.29;100086.59;1757405;82;20999;-41
2021/12/22 01:18:10;;;;;;;38.40;15.72;;;;;;;-3.33;77.45;100083.93;1757608;82;21526;-41
2021/12/22 01:20:49;;;;;;;32.40;15.08;;;;;;;-3.32;77.56;100084.78;1756591;81;21022;-40
2021/12/22 01:23:04;;;;;;;38.85;15.20;;;;;;;-3.44;77.88;100086.75;1755023;81;21006;-39
2021/12/22 01:25:42;;;;;;;42.45;14.07;;;;;;;-3.36;77.66;100090.30;1757310;82;21619;-42
2021/12/22 01:28:05;;;;;;;34.23;15.70;;;;;;;-3.36;77.34;100087.73;1756942;81;21539;-40
2021/12/22 01:30:32;;;;;;;33.20;14.20;;;;;;;-3.36;77.47;100089.45;1757368;81;21010;-40
2021/12/22 01:33:01;;;;;;;34.48;14.07;;;;;;;-3.42;77.53;100094.48;1757483;81;21014;-40
2021/12/22 01:35:31;;;;;;;34.85;15.08;;;;;;;-3.36;77.26;100097.16;1757317;82;21010;-39
2021/12/22 01:37:57;;;;;;;33.50;14.50;;;;;;;-3.37;77.02;100095.42;1757373;81;21483;-40
2021/12/22 01:40:24;;;;;;;32.15;14.23;;;;;;;-3.37;77.03;100093.70;1757438;82;21010;-40
2021/12/22 01:42:55;;;;;;;36.48;14.75;;;;;;;-3.35;76.71;100102.73;1757515;81;21046;-41
2021/12/22 01:51:49;;;;;;;34.38;13.68;;;;;;;-3.36;76.43;100105.73;1764402;81;20990;-40
2021/12/22 01:54:27;;;;;;;29.90;14.30;;;;;;;-3.40;76.23;100099.23;1764134;81;20978;-40
2021/12/22 01:56:59;;;;;;;30.95;14.25;;;;;;;-3.50;76.52;100095.24;1764321;81;20954;-40
2021/12/22 01:59:22;;;;;;;36.08;13.43;;;;;;;-3.45;76.68;100097.03;1763764;81;21033;-40
2021/12/22 02:01:48;;;;;;;31.70;13.62;;;;;;;-3.48;76.64;100098.69;1764332;81;20998;-40
2021/12/22 02:04:14;;;;;;;30.80;13.78;;;;;;;-3.52;76.51;100099.50;1764262;81;21002;-40
2021/12/22 02:06:43;;;;;;;27.10;12.82;;;;;;;-3.52;76.42;100100.78;1764289;81;20999;-40
2021/12/22 02:09:11;;;;;;;30.75;12.63;;;;;;;-3.52;76.43;100100.78;1764307;81;21543;-41
2021/12/22 02:11:37;;;;;;;28.83;12.78;;;;;;;-3.51;76.52;100101.64;1764459;81;21006;-40
2021/12/22 02:14:05;;;;;;;34.70;14.25;;;;;;;-3.52;76.42;100105.07;1764312;81;21014;-40
2021/12/22 02:16:34;;;;;;;;;;;;;;;-3.54;76.19;100101.19;1766787;81;21042;-40
2021/12/22 02:19:01;;;;;;;26.25;12.43;;;;;;;-3.51;75.99;100105.50;1763837;81;20138;-41
2021/12/22 02:21:32;;;;;;;27.32;12.90;;;;;;;-3.52;76.03;100099.50;1764388;81;21030;-41
2021/12/22 02:23:56;;;;;;;26.07;12.65;;;;;;;-3.57;75.96;100091.28;1763724;81;21475;-41
2021/12/22 02:26:29;;;;;;;24.98;12.33;;;;;;;-3.52;75.76;100098.64;1764363;81;21507;-40
2021/12/22 02:28:58;;;;;;;29.92;13.55;;;;;;;-3.55;76.02;100094.30;1763098;81;20983;-41
2021/12/22 02:31:19;;;;;;;26.75;12.13;;;;;;;-3.63;75.90;100092.05;1762899;81;21026;-42
2021/12/22 02:33:48;;;;;;;23.35;11.38;;;;;;;-3.63;75.79;100095.05;1764243;81;20991;-40
2021/12/22 02:38:55;;;;;;;24.43;12.10;;;;;;;-3.61;75.71;100098.08;1764306;81;20957;-41
2021/12/22 02:41:27;;;;;;;25.20;12.35;;;;;;;-3.74;75.67;100095.75;1754176;79;21115;-38
2021/12/22 02:43:56;;;;;;;25.08;11.88;;;;;;;-3.74;75.80;100093.17;1800945;79;21027;-40
2021/12/22 02:46:31;;;;;;;29.55;11.65;;;;;;;-3.76;75.94;100094.86;1806794;78;21663;-40
2021/12/22 02:49:00;;;;;;;26.35;11.90;;;;;;;-3.73;75.93;100101.73;1801121;79;21016;-40
2021/12/22 02:51:28;;;;;;;26.05;11.90;;;;;;;-3.78;75.81;100097.83;1796612;79;20996;-40
2021/12/22 02:54:19;;;;;;;26.35;12.03;;;;;;;-3.74;76.02;100099.59;1796835;80;21461;-39
2021/12/22 03:02:14;;;;;;;21.55;10.08;;;;;;;-3.83;76.04;100094.31;1796645;80;21437;-39
2021/12/22 03:04:43;;;;;;;26.77;11.10;;;;;;;-3.86;75.94;100095.15;1795483;79;21484;-39
2021/12/22 03:07:09;;;;;;;21.35;10.30;;;;;;;-3.91;76.08;100092.92;1795304;79;20976;-40
2021/12/22 03:09:33;;;;;;;27.05;11.18;;;;;;;-3.89;76.00;100093.80;1795597;79;21564;-40
2021/12/22 03:12:04;;;;;;;23.75;10.75;;;;;;;-3.93;76.16;100094.60;1796686;79;21050;-40
2021/12/22 03:14:30;;;;;;;27.93;11.12;;;;;;;-3.92;76.05;100096.31;1796653;79;20983;-40
2021/12/22 03:16:57;;;;;;;23.38;10.98;;;;;;;-3.98;76.28;100099.19;1796607;79;21019;-40
2021/12/22 03:19:34;;;;;;;28.07;11.28;;;;;;;-3.98;76.37;100098.80;1796675;80;20988;-40
2021/12/22 03:22:04;;;;;;;20.90;9.98;;;;;;;-3.98;76.33;100108.19;1796690;79;21505;-40
2021/12/22 03:24:33;;;;;;;25.20;11.50;;;;;;;-4.00;76.19;100110.76;1796456;79;21075;-40
2021/12/22 03:27:02;;;;;;;27.82;10.80;;;;;;;-3.95;76.24;100103.96;1796558;79;21472;-41
2021/12/22 03:29:27;;;;;;;27.42;11.20;;;;;;;-3.96;76.37;100108.67;1796318;80;20964;-41
2021/12/22 03:31:53;;;;;;;24.20;11.60;;;;;;;-3.92;76.24;100107.88;1796662;80;21442;-40
2021/12/22 03:34:18;;;;;;;26.80;11.65;;;;;;;-3.93;76.16;100113.88;1796523;79;20992;-41
2021/12/22 03:36:44;;;;;;;25.45;12.07;;;;;;;-3.94;76.38;100122.41;1796628;79;21015;-40
2021/12/22 03:39:13;;;;;;;32.93;15.63;;;;;;;-3.99;76.58;100121.46;1796670;80;20975;-40
2021/12/22 03:41:39;;;;;;;28.10;12.37;;;;;;;-3.96;76.68;100127.09;1797727;79;21492;-40
2021/12/22 03:44:07;;;;;;;28.00;12.58;;;;;;;-3.95;76.70;100119.38;1802061;79;20952;-40
2021/12/22 03:46:34;;;;;;;34.40;17.20;;;;;;;-3.90;76.55;100131.89;1802062;79;20980;-40
2021/12/22 03:49:00;;;;;;;56.30;28.43;;;;;;;-3.86;76.33;100132.41;1802247;79;21477;-40
2021/12/22 03:51:27;;;;;;;33.33;19.67;;;;;;;-3.79;76.21;100135.06;1802362;79;20983;-40
2021/12/22 03:53:53;;;;;;;32.35;15.50;;;;;;;-3.79;76.04;100135.92;1802231;79;20991;-41
2021/12/22 03:56:20;;;;;;;30.92;13.28;;;;;;;-3.81;75.97;100135.04;1801997;79;20980;-40
2021/12/22 03:58:46;;;;;;;27.40;11.65;;;;;;;-3.79;75.95;100133.78;1801994;79;20999;-40
2021/12/22 04:01:13;;;;;;;26.57;11.65;;;;;;;-3.83;75.89;100136.72;1802011;79;20956;-40
2021/12/22 04:03:40;;;;;;;29.92;13.15;;;;;;;-3.86;76.05;100141.41;1802076;79;21622;-40
2021/12/22 04:06:06;;;;;;;31.15;13.90;;;;;;;-3.84;75.95;100132.84;1802214;79;20987;-41
2021/12/22 04:08:32;;;;;;;33.08;13.50;;;;;;;-3.84;75.91;100136.27;1802326;79;20979;-40
2021/12/22 04:10:59;;;;;;;28.32;12.58;;;;;;;-3.81;76.15;100145.75;1802020;79;20992;-40
2021/12/22 04:13:24;;;;;;;29.75;12.10;;;;;;;-3.89;76.25;100138.77;1801985;79;20983;-40
2021/12/22 04:15:51;;;;;;;30.95;12.60;;;;;;;-3.93;76.32;100132.26;1802007;79;21472;-40
2021/12/22 04:18:18;;;;;;;32.42;12.47;;;;;;;-3.87;76.26;100135.80;1802064;79;21030;-40
2021/12/22 04:20:45;;;;;;;26.12;12.10;;;;;;;-3.92;76.23;100133.58;1802066;79;21003;-40
2021/12/22 04:23:11;;;;;;;31.95;12.43;;;;;;;-3.92;76.23;100133.58;1802232;79;20976;-40
2021/12/22 04:25:37;;;;;;;28.45;13.30;;;;;;;-3.95;76.47;100136.08;1801985;79;20983;-39
2021/12/22 04:28:08;;;;;;;33.18;13.30;;;;;;;-4.01;77.03;100136.42;1802046;79;20959;-41
2021/12/22 04:30:42;;;;;;;24.82;12.47;;;;;;;-3.97;77.25;100138.19;1801981;79;21027;-40
2021/12/22 04:33:08;;;;;;;27.80;12.05;;;;;;;-3.94;76.73;100133.97;1800697;79;21034;-40
2021/12/22 04:35:35;;;;;;;26.23;12.33;;;;;;;-3.92;76.70;100132.28;1801988;79;20996;-40
2021/12/22 04:38:01;;;;;;;25.73;11.63;;;;;;;-3.87;76.71;100133.23;1802263;79;20995;-40
2021/12/22 04:40:27;;;;;;;32.40;12.43;;;;;;;-3.79;76.55;100130.78;1802276;79;20997;-41
2021/12/22 04:42:53;;;;;;;26.80;11.97;;;;;;;-3.78;76.13;100133.81;1801919;79;21433;-41
2021/12/22 04:45:19;;;;;;;25.90;11.70;;;;;;;-3.75;76.08;100131.70;1802037;79;21136;-40
2021/12/22 04:47:47;;;;;;;30.65;13.68;;;;;;;-3.72;75.90;100136.90;1801954;79;20997;-40
2021/12/22 04:50:17;;;;;;;27.98;11.83;;;;;;;-3.72;75.54;100135.19;1802025;79;21007;-40
2021/12/22 04:52:58;;;;;;;30.12;12.20;;;;;;;-3.67;75.47;100142.98;1801980;79;20948;-40
2021/12/22 04:55:25;;;;;;;28.85;14.18;;;;;;;-3.75;75.33;100137.70;1801522;79;20952;-40
2021/12/22 04:57:52;;;;;;;32.33;12.95;;;;;;;-3.76;75.43;100138.98;1802070;79;20971;-40
2021/12/22 05:00:18;;;;;;;26.07;12.97;;;;;;;-3.77;75.71;100137.24;1802259;79;21029;-40
2021/12/22 05:02:44;;;;;;;33.35;14.33;;;;;;;-3.84;75.74;100141.41;1802199;79;20999;-41
2021/12/22 05:05:11;;;;;;;31.75;13.62;;;;;;;-3.84;75.61;100142.69;1802065;79;21007;-40
2021/12/22 05:07:37;;;;;;;30.90;13.90;;;;;;;-3.91;75.45;100144.31;1802210;79;20991;-41
2021/12/22 05:10:05;;;;;;;31.00;14.38;;;;;;;-3.94;75.48;100143.39;1801980;79;20987;-41
2021/12/22 05:12:31;;;;;;;32.70;16.12;;;;;;;-3.99;75.63;100142.02;1801957;79;20995;-40
2021/12/22 05:14:57;;;;;;;30.05;14.78;;;;;;;-3.97;75.45;100137.77;1801959;79;21481;-39
2021/12/22 05:17:37;;;;;;;32.50;14.90;;;;;;;-3.98;75.44;100139.91;1802088;79;20991;-40
2021/12/22 05:19:53;;;;;;;35.92;15.32;;;;;;;-4.00;75.49;100143.27;1800285;79;20978;-40
2021/12/22 05:22:19;;;;;;;31.23;14.15;;;;;;;-4.02;75.66;100146.23;1801934;79;21023;-40
2021/12/22 05:24:45;;;;;;;31.33;13.98;;;;;;;-4.01;75.68;100153.12;1801866;79;21007;-40
2021/12/22 05:27:13;;;;;;;32.65;14.20;;;;;;;-4.06;75.70;100150.06;1802044;79;20979;-41
2021/12/22 05:29:39;;;;;;;28.57;13.65;;;;;;;-4.09;75.70;100159.41;1801848;79;20940;-40
2021/12/22 05:32:06;;;;;;;28.23;13.70;;;;;;;-4.07;75.61;100155.16;1802162;79;20984;-40
2021/12/22 05:34:33;;;;;;;;;;;;;;;-4.10;75.80;100155.09;1804629;79;20948;-40
2021/12/22 05:36:59;;;;;;;35.68;16.05;;;;;;;-4.16;75.62;100165.27;1802103;79;20098;-40
2021/12/22 05:39:25;;;;;;;37.83;14.80;;;;;;;-4.10;75.70;100166.23;1802237;79;21441;-40
2021/12/22 05:41:51;;;;;;;37.93;16.52;;;;;;;-4.09;75.92;100167.12;1802533;79;20975;-40
2021/12/22 05:44:16;;;;;;;59.38;24.60;;;;;;;-4.22;75.92;100165.14;1817557;79;20971;-40
2021/12/22 05:46:42;;;;;;;38.98;15.75;;;;;;;-4.22;76.16;100168.99;1817700;79;20983;-39
2021/12/22 05:49:08;;;;;;;30.43;13.43;;;;;;;-4.11;76.05;100173.91;1817555;79;21022;-40
2021/12/22 05:51:34;;;;;;;27.93;12.70;;;;;;;-4.14;75.55;100168.73;1817553;79;20987;-39
2021/12/22 05:54:01;;;;;;;33.02;13.88;;;;;;;-4.12;75.59;100169.63;1817502;79;20979;-40
2021/12/22 05:56:28;;;;;;;33.38;13.98;;;;;;;-4.14;75.80;100170.88;1817533;79;20967;-40
2021/12/22 05:58:54;;;;;;;26.42;13.45;;;;;;;-4.08;75.34;100167.55;1817485;79;21010;-40
2021/12/22 06:01:20;;;;;;;30.12;14.18;;;;;;;-4.11;75.68;100170.94;1817518;79;21002;-40
2021/12/22 06:03:46;;;;;;;27.82;13.58;;;;;;;-4.12;75.43;100178.61;1817492;79;20980;-40
2021/12/22 06:06:12;;;;;;;31.75;13.08;;;;;;;-4.08;75.28;100177.39;1817541;79;21021;-40
2021/12/22 06:08:38;;;;;;;30.48;13.40;;;;;;;-4.09;74.99;100176.11;1817624;79;20970;-40
2021/12/22 06:11:04;;;;;;;34.88;13.03;;;;;;;-4.13;74.84;100183.29;1817508;79;20978;-40
2021/12/22 06:13:30;;;;;;;29.18;14.00;;;;;;;-4.14;74.75;100191.85;1817505;79;21038;-40
2021/12/22 06:15:56;;;;;;;31.73;14.73;;;;;;;-4.19;74.93;100203.73;1817510;79;21042;-40
2021/12/22 06:18:22;;;;;;;31.73;14.20;;;;;;;-4.23;75.09;100207.09;1817539;79;21018;-40
2021/12/22 06:20:47;;;;;;;37.00;14.65;;;;;;;-4.19;75.04;100203.73;1817548;79;21479;-40
2021/12/22 06:23:13;;;;;;;37.15;15.50;;;;;;;-4.26;75.05;100206.20;1817573;79;21637;-40
2021/12/22 06:25:39;;;;;;;36.98;15.55;;;;;;;-4.29;75.31;100213.83;1817652;79;21010;-40
2021/12/22 06:28:06;;;;;;;34.00;15.00;;;;;;;-4.26;75.33;100210.45;1817516;79;20975;-40
2021/12/22 06:30:32;;;;;;;37.30;15.53;;;;;;;-4.32;75.28;100214.19;1817733;79;20970;-41
2021/12/22 06:32:58;;;;;;;33.02;15.00;;;;;;;-4.25;75.31;100217.33;1817513;79;20987;-40
2021/12/22 06:35:24;;;;;;;37.98;16.77;;;;;;;-4.27;75.52;100216.01;1817513;79;20986;-40
2021/12/22 06:37:52;;;;;;;39.08;18.52;;;;;;;-4.26;75.52;100218.15;1817609;79;21421;-40
2021/12/22 06:40:19;;;;;;;42.78;18.12;;;;;;;-4.19;75.53;100221.72;1817735;79;20959;-40
2021/12/22 06:42:45;;;;;;;41.45;19.82;;;;;;;-4.16;75.47;100223.92;1812023;79;20984;-40
2021/12/22 06:45:14;;;;;;;40.10;19.92;;;;;;;-4.14;75.64;100229.09;1795575;79;21058;-40
2021/12/22 06:47:41;;;;;;;46.45;22.35;;;;;;;-4.14;75.88;100234.23;1796598;79;20984;-40
2021/12/22 06:50:08;;;;;;;;;;;;;;;-4.14;75.88;100234.23;1799132;80;20987;-40
2021/12/22 06:52:34;;;;;;;;;;;;;;;-4.15;75.54;100237.63;1799167;80;20449;-40
2021/12/22 06:55:00;;;;;;;64.62;25.85;;;;;;;-4.13;75.90;100239.80;1796490;79;20166;-40
2021/12/22 06:57:29;;;;;;;146.85;41.98;;;;;;;-4.03;75.97;100243.00;1796504;80;21540;-39
2021/12/22 06:59:57;;;;;;;117.93;35.35;;;;;;;-3.97;75.83;100244.39;1796375;80;21034;-41
2021/12/22 07:02:24;;;;;;;;;;;;;;;-3.99;75.78;100242.22;1799400;80;20996;-40
2021/12/22 07:04:50;;;;;;;73.02;32.25;;;;;;;-3.95;75.56;100250.42;1796427;79;20158;-39
2021/12/22 07:07:16;;;;;;;37.60;17.60;;;;;;;-3.92;75.71;100255.63;1796425;80;20995;-41
2021/12/22 07:09:41;;;;;;;43.35;17.90;;;;;;;-3.87;75.58;100254.02;1796566;79;20991;-40
2021/12/22 07:12:10;;;;;;;42.48;19.85;;;;;;;-3.86;75.55;100252.30;1796584;79;21448;-40
2021/12/22 07:14:36;;;;;;;38.92;20.10;;;;;;;-3.84;75.62;100255.77;1796611;79;21034;-40
2021/12/22 07:17:03;;;;;;;36.77;18.10;;;;;;;-3.81;75.79;100262.69;1796619;80;21031;-40
2021/12/22 07:19:28;;;;;;;47.33;23.10;;;;;;;-3.78;75.81;100262.33;1796591;80;21035;-41
2021/12/22 07:21:55;;;;;;;49.08;19.42;;;;;;;-3.76;75.59;100264.50;1796620;79;21007;-40
2021/12/22 07:24:22;;;;;;;38.10;18.52;;;;;;;-3.67;75.45;100270.23;1796551;80;20972;-40
2021/12/22 07:26:48;;;;;;;42.85;19.92;;;;;;;-3.69;75.03;100266.34;1796738;80;21006;-40
2021/12/22 07:29:14;;;;;;;37.90;19.73;;;;;;;-3.75;75.25;100271.36;1796660;79;21480;-41
2021/12/22 07:31:40;;;;;;;51.58;25.60;;;;;;;-3.80;75.23;100269.54;1796605;79;20991;-41
2021/12/22 07:34:26;;;;;;;42.75;20.50;;;;;;;-3.88;75.49;100268.12;1796598;80;20968;-41
2021/12/22 07:37:06;;;;;;;47.15;20.72;;;;;;;-3.87;75.38;100273.30;1774616;80;21484;-41
2021/12/22 07:39:32;;;;;;;43.30;18.45;;;;;;;-3.87;75.34;100272.01;1796087;79;20996;-39
2021/12/22 07:41:58;;;;;;;54.85;22.00;;;;;;;-3.80;75.34;100277.25;1796618;79;20999;-40
2021/12/22 07:44:23;;;;;;;49.53;20.57;;;;;;;-3.80;75.34;100277.25;1800902;79;21070;-41
2021/12/22 07:46:49;;;;;;;45.48;20.08;;;;;;;-3.86;75.38;100280.58;1802175;79;20987;-40
2021/12/22 07:49:15;;;;;;;48.92;19.32;;;;;;;-3.79;75.27;100281.14;1801953;79;20988;-40
2021/12/22 07:51:41;;;;;;;41.73;19.60;;;;;;;-3.72;75.06;100280.42;1801936;79;20978;-41
2021/12/22 07:54:07;;;;;;;42.13;19.82;;;;;;;-3.67;75.04;100286.94;1801290;79;21074;-40
2021/12/22 07:56:32;;;;;;;39.92;18.67;;;;;;;-3.64;74.87;100281.83;1800650;79;21054;-42
2021/12/22 07:58:58;;;;;;;41.90;18.60;;;;;;;-3.56;75.00;100274.28;1801904;79;21481;-41
2021/12/22 08:01:24;;;;;;;40.48;18.07;;;;;;;-3.48;74.76;100278.70;1802028;79;21497;-41
2021/12/22 08:03:49;;;;;;;39.18;18.15;;;;;;;-3.51;74.35;100277.37;1801925;79;20983;-42
2021/12/22 08:06:16;;;;;;;40.52;17.82;;;;;;;-3.40;74.68;100278.85;1802014;79;20991;-42
2021/12/22 08:08:42;;;;;;;40.33;17.00;;;;;;;-3.29;74.63;100282.89;1802020;79;21667;-41
2021/12/22 08:11:08;;;;;;;34.67;18.12;;;;;;;-3.22;74.28;100285.13;1801873;79;21026;-42
2021/12/22 08:13:35;;;;;;;41.55;17.85;;;;;;;-3.31;73.95;100280.69;1801835;79;20992;-41
2021/12/22 08:16:01;;;;;;;37.30;17.37;;;;;;;-3.20;74.10;100280.87;1756955;79;21472;-42
2021/12/22 08:18:27;;;;;;;42.33;18.67;;;;;;;-3.16;74.22;100280.95;1801909;79;20960;-41
2021/12/22 08:20:53;;;;;;;44.75;18.12;;;;;;;-3.13;73.89;100284.87;1802218;79;20956;-40
2021/12/22 08:23:19;;;;;;;37.98;16.52;;;;;;;-3.08;74.18;100291.37;1801831;79;20995;-41
2021/12/22 08:25:46;;;;;;;33.60;13.80;;;;;;;-3.00;73.83;100293.66;1801902;79;21050;-41
2021/12/22 08:28:12;;;;;;;32.42;15.45;;;;;;;-2.96;73.88;100292.86;1802013;79;21047;-40
2021/12/22 08:30:39;;;;;;;31.33;14.53;;;;;;;-2.96;73.38;100292.86;1802010;79;21460;-41
2021/12/22 08:33:09;;;;;;;40.65;16.55;;;;;;;-2.88;73.34;100291.67;1802069;79;21026;-41
2021/12/22 08:38:50;;;;;;;33.53;14.53;;;;;;;-2.95;73.36;100298.86;1801578;79;20979;-39
2021/12/22 08:40:46;;;;;;;27.77;13.25;;;;;;;-2.91;72.95;100298.05;1801992;79;21035;-40
2021/12/22 08:43:11;;;;;;;29.25;13.15;;;;;;;-2.79;73.31;100301.26;1802222;79;21486;-40
2021/12/22 08:45:37;;;;;;;26.77;12.55;;;;;;;-2.75;73.37;100302.63;1801922;79;20991;-40
2021/12/22 08:48:04;;;;;;;28.92;12.37;;;;;;;-2.74;72.71;100297.05;1801910;79;21015;-40
2021/12/22 08:50:29;;;;;;;28.85;13.48;;;;;;;-2.80;72.51;100295.25;1801879;79;21595;-41
2021/12/22 08:52:56;;;;;;;25.00;13.22;;;;;;;-2.92;72.22;100297.63;1801958;79;20999;-39
2021/12/22 08:55:22;;;;;;;28.07;14.90;;;;;;;-2.78;72.44;100303.86;1801855;79;20952;-41
2021/12/22 08:57:48;;;;;;;29.02;13.45;;;;;;;-2.78;72.19;100301.72;1801892;79;21035;-39
2021/12/22 09:00:15;;;;;;;26.62;13.35;;;;;;;-2.66;72.42;100305.73;1801870;79;21019;-39
2021/12/22 09:02:40;;;;;;;30.55;13.35;;;;;;;-2.60;72.09;100306.23;1788940;79;21467;-40
2021/12/22 09:05:07;;;;;;;25.43;11.90;;;;;;;-2.61;72.15;100308.39;1780637;79;20986;-40
2021/12/22 09:07:33;;;;;;;31.00;12.25;;;;;;;-2.68;71.57;100307.42;1780455;80;20955;-41
2021/12/22 09:09:59;;;;;;;26.77;12.98;;;;;;;-2.54;72.10;100313.64;1780683;80;20955;-39
2021/12/22 09:12:27;;;;;;;29.45;13.28;;;;;;;-2.52;71.80;100309.38;1780589;79;21139;-39
2021/12/22 09:14:52;;;;;;;;;;;;;;;-2.55;71.67;100309.36;1783187;80;20955;-40
2021/12/22 09:17:18;;;;;;;26.90;12.03;;;;;;;-2.52;71.36;100310.66;1780597;80;20112;-41
2021/12/22 09:19:43;;;;;;;29.45;14.03;;;;;;;-2.55;71.41;100311.93;1780536;80;21010;-40
2021/12/22 09:22:10;;;;;;;48.45;17.55;;;;;;;-2.48;71.75;100312.00;1780400;79;21543;-40
2021/12/22 09:24:36;;;;;;;61.28;22.90;;;;;;;-2.42;71.86;100309.50;1780172;80;21547;-40
2021/12/22 09:27:02;;;;;;;38.75;18.32;;;;;;;-2.24;72.31;100312.32;1780581;79;20983;-41
2021/12/22 09:29:29;;;;;;;42.03;18.60;;;;;;;-2.17;71.87;100313.27;1788467;79;21047;-41
2021/12/22 09:31:56;;;;;;;32.20;15.85;;;;;;;-2.13;71.76;100307.30;1769897;81;21500;-41
2021/12/22 09:34:23;;;;;;;36.28;16.52;;;;;;;-2.02;71.72;100307.44;1769820;81;20975;-41
2021/12/22 09:36:48;;;;;;;35.38;16.35;;;;;;;-1.99;71.63;100308.34;1769477;81;21477;-41
2021/12/22 09:39:14;;;;;;;41.55;19.10;;;;;;;-2.11;71.03;100305.64;1750347;81;20960;-41
2021/12/22 09:41:40;;;;;;;39.67;17.80;;;;;;;-2.05;71.13;100306.98;1769681;81;21050;-41
2021/12/22 09:44:06;;;;;;;48.75;21.87;;;;;;;-2.08;71.01;100300.50;1775741;80;21031;-40
2021/12/22 09:46:34;;;;;;;43.65;20.77;;;;;;;-2.09;71.28;100301.77;1784802;80;20983;-40
2021/12/22 09:49:07;;;;;;;55.03;22.07;;;;;;;-2.12;71.56;100298.74;1784789;80;20951;-39
2021/12/22 09:53:55;;;;;;;30.85;16.07;;;;;;;-2.27;71.90;100292.98;1784888;80;20955;-40
2021/12/22 09:56:27;;;;;;;37.93;16.27;;;;;;;-2.22;72.04;100297.77;1784782;80;20978;-40
2021/12/22 09:58:54;;;;;;;43.55;19.37;;;;;;;-2.16;71.86;100298.27;1784783;80;20974;-40
2021/12/22 10:01:23;;;;;;;38.08;16.73;;;;;;;-2.23;71.56;100299.03;1784992;80;21479;-42
2021/12/22 10:03:51;;;;;;;47.50;18.55;;;;;;;-2.26;71.74;100295.98;1784264;80;20990;-40
2021/12/22 10:06:17;;;;;;;39.92;16.95;;;;;;;-2.25;72.08;100302.02;1784385;80;20999;-42
2021/12/22 10:08:57;;;;;;;35.13;16.35;;;;;;;-2.32;72.43;100299.34;1785049;80;21502;-42
2021/12/22 10:11:23;;;;;;;35.20;15.10;;;;;;;-2.23;72.29;100298.61;1784644;80;20971;-41
2021/12/22 10:13:49;;;;;;;54.33;21.65;;;;;;;-2.24;71.92;100290.84;1784598;80;20950;-41
2021/12/22 10:16:19;;;;;;;52.85;21.07;;;;;;;-2.26;71.94;100297.70;1785036;80;21614;-41
2021/12/22 10:18:47;;;;;;;34.18;16.07;;;;;;;-2.24;72.08;100293.42;1784896;80;20966;-41
2021/12/22 10:21:16;;;;;;;;;;;;;;;-2.26;71.93;100295.98;1787160;80;21468;-41
2021/12/22 10:23:52;;;;;;;90.67;28.50;;;;;;;-2.17;71.97;100299.95;1784692;80;20388;-42
2021/12/22 10:26:26;;;;;;;32.83;14.63;;;;;;;-2.19;71.54;100301.66;1784594;80;20951;-39
2021/12/22 10:28:59;;;;;;;36.50;15.55;;;;;;;-2.16;71.30;100298.27;1784768;80;21433;-40
2021/12/22 10:31:45;;;;;;;46.50;16.75;;;;;;;-2.10;70.91;100300.05;1784816;80;20983;-41
2021/12/22 10:34:17;;;;;;;36.97;15.73;;;;;;;-2.21;71.03;100298.20;1785143;80;20967;-42
2021/12/22 10:36:53;;;;;;;43.87;17.80;;;;;;;-2.22;70.86;100299.45;1784747;80;21894;-40
2021/12/22 10:39:24;;;;;;;32.10;14.43;;;;;;;-2.24;71.08;100294.28;1784792;80;20986;-40
2021/12/22 10:41:51;;;;;;;33.48;14.75;;;;;;;-2.12;71.37;100302.17;1784688;80;20967;-42
2021/12/22 10:44:18;;;;;;;37.43;15.23;;;;;;;-2.06;71.01;100299.23;1784868;80;20968;-39
2021/12/22 10:46:46;;;;;;;;;;;;;;;-2.02;71.17;100295.84;1810984;79;21629;-41
2021/12/22 10:49:21;;;;;;;28.07;13.35;;;;;;;-2.00;70.80;100290.27;1816431;79;20417;-41
2021/12/22 10:52:01;;;;;;;32.60;16.45;;;;;;;-1.91;70.50;100290.81;1816396;79;21468;-41
2021/12/22 10:54:36;;;;;;;33.18;14.60;;;;;;;-1.91;70.19;100290.81;1816878;79;21053;-40
2021/12/22 10:57:07;;;;;;;38.83;15.28;;;;;;;-1.85;70.09;100296.91;1816550;79;21447;-41
2021/12/22 10:59:47;;;;;;;52.95;17.40;;;;;;;-1.83;69.62;100292.63;1816796;79;21006;-40
2021/12/22 11:02:26;;;;;;;36.35;15.53;;;;;;;-1.81;69.66;100288.78;1816496;79;21006;-41
2021/12/22 11:04:51;;;;;;;26.95;12.73;;;;;;;-1.73;69.85;100285.85;1816397;79;20983;-41
2021/12/22 11:07:24;;;;;;;33.67;15.18;;;;;;;-1.70;69.35;100290.20;1816801;79;21007;-41
2021/12/22 11:09:49;;;;;;;65.03;18.57;;;;;;;-1.69;68.97;100284.17;1815982;79;20981;-45
2021/12/22 11:12:17;;;;;;;48.10;16.93;;;;;;;-1.61;69.27;100282.55;1814397;78;22053;-41
2021/12/22 11:14:50;;;;;;;24.80;12.15;;;;;;;-1.55;69.14;100282.20;1799206;78;20979;-41
2021/12/22 11:17:20;;;;;;;24.70;11.53;;;;;;;-1.50;68.15;100274.48;1809225;78;20985;-41
2021/12/22 11:19:57;;;;;;;25.85;11.00;;;;;;;-1.43;67.82;100283.16;1802990;78;20971;-41
2021/12/22 11:22:36;;;;;;;39.92;13.35;;;;;;;-1.29;67.65;100280.69;1804605;78;20999;-41
2021/12/22 11:24:53;;;;;;;21.25;10.10;;;;;;;-1.36;66.80;100277.20;1806961;78;20939;-40
2021/12/22 11:27:25;;;;;;;51.15;15.38;;;;;;;-1.30;67.48;100282.41;1803606;78;21636;-40
2021/12/22 11:29:58;;;;;;;25.70;9.23;;;;;;;-1.29;66.97;100280.28;1809453;78;21029;-41
2021/12/22 11:32:29;;;;;;;57.17;15.08;;;;;;;-1.23;66.58;100276.45;1800286;78;20975;-41
2021/12/22 11:35:02;;;;;;;24.43;10.63;;;;;;;-1.20;66.50;100271.33;1803122;78;20951;-41